Port Star — 3EAS6 — position and weather

sailwx.info

Track history (hours):
 
Tides and Currents Weather Stations Pressure Air Temp Water Temp Dewpoint Dewpoint Depression Visibility Wind Speed Wind Dir Waves Ship Positions

Port Star

Last reported at 2015-Jan-29 14:16 UTC. Time now 2015-Feb-01 07:09 UTC.
Position N 39°46' E 025°45'.

Length 175.5 m; beam 29.4 m.

Type: Ship. MMSI: 356105000.

Date/timePositionNaut miles runAvg speedWind from/ knotsBaromVisibWave heightAir tempDewpointWater temp
2015-Jan-29 14:16N 39°46' E 025°45'5911.9
2015-Jan-29 09:16N 40°25' E 026°43'5 7.1
2015-Jan-29 08:31N 40°26' E 026°50'92 6.5
2015-Jan-28 18:24N 40°54' E 028°46'1011.1
2015-Jan-28 17:31N 40°58' E 028°58'1110.3
2015-Jan-28 16:24N 41°08' E 029°04'11 8.6
2015-Jan-28 15:09N 41°19' E 029°09'5 7.2
2015-Jan-28 14:29N 41°23' E 029°09'10 4.3
2015-Jan-28 12:06N 41°31' E 029°18'610.1
2015-Jan-28 11:33N 41°31' E 029°26'1010.1
2015-Jan-28 10:33N 41°32' E 029°39'24412.0
2015-Jan-27 14:17N 43°23' E 034°34'1312.7
2015-Jan-27 13:16N 43°29' E 034°49'1012.5
2015-Jan-27 12:30N 43°33' E 035°01'1312.6
2015-Jan-27 11:26N 43°39' E 035°18'1112.8
2015-Jan-27 10:33N 43°45' E 035°32'1412.5
2015-Jan-27 09:25N 43°51' E 035°50'1312.4
2015-Jan-27 08:20N 43°57' E 036°06'6112.3
2015-Jan-27 03:24N 44°24' E 037°22'1112.8
2015-Jan-27 02:33N 44°30' E 037°35'1212.3
2015-Jan-27 01:33N 44°37' E 037°48'6 6.2
2015-Jan-27 00:33N 44°43' E 037°48'1 0.5
2015-Jan-26 23:32N 44°44' E 037°47'0 0.0
2015-Jan-26 22:32N 44°44' E 037°47'0 0.0
2015-Jan-26 21:32N 44°44' E 037°47'0 0.0
2015-Jan-26 20:32N 44°44' E 037°47'0 0.0
2015-Jan-26 19:32N 44°44' E 037°47'0 0.0
2015-Jan-26 18:32N 44°44' E 037°47'0 0.0
2015-Jan-26 17:29N 44°44' E 037°47'0 0.0
2015-Jan-26 16:32N 44°44' E 037°47'0 0.0
2015-Jan-26 15:32N 44°44' E 037°47'0 0.0
2015-Jan-26 14:32N 44°44' E 037°47'0 0.0
2015-Jan-26 13:32N 44°44' E 037°47'0 0.0
2015-Jan-26 12:32N 44°44' E 037°47'0 0.0
2015-Jan-26 11:32N 44°44' E 037°47'0 0.0
2015-Jan-26 10:32N 44°44' E 037°47'0 0.0
2015-Jan-26 09:32N 44°44' E 037°47'0 0.0
2015-Jan-26 08:32N 44°44' E 037°47'0 0.0
2015-Jan-26 07:32N 44°44' E 037°47'0 0.0
2015-Jan-26 06:32N 44°44' E 037°47'0 0.0
2015-Jan-26 05:32N 44°44' E 037°47'0 0.0
2015-Jan-26 04:32N 44°44' E 037°47'0 0.0
2015-Jan-26 03:32N 44°44' E 037°47'0 0.0
2015-Jan-26 02:32N 44°44' E 037°47'0 0.0
2015-Jan-26 01:32N 44°44' E 037°47'0 0.0
2015-Jan-26 00:32N 44°44' E 037°47'0 0.0
2015-Jan-25 23:32N 44°44' E 037°47'0 0.0
2015-Jan-25 22:32N 44°44' E 037°47'0 0.0
2015-Jan-25 21:32N 44°44' E 037°47'0 0.0
2015-Jan-25 20:32N 44°44' E 037°47'0 0.0
2015-Jan-25 19:29N 44°44' E 037°47'0 0.0
2015-Jan-25 18:32N 44°44' E 037°47'0 0.0
2015-Jan-25 17:32N 44°44' E 037°47'0 0.0
2015-Jan-25 16:32N 44°44' E 037°47'0 0.0
2015-Jan-25 15:32N 44°44' E 037°47'0 0.0
2015-Jan-25 14:32N 44°44' E 037°47'0 0.0
2015-Jan-25 13:32N 44°44' E 037°47'0 0.0
2015-Jan-25 12:32N 44°44' E 037°47'0 0.0
2015-Jan-25 11:32N 44°44' E 037°47'0 0.0
2015-Jan-25 10:32N 44°44' E 037°47'0 0.0
2015-Jan-25 09:32N 44°44' E 037°47'0 0.0
2015-Jan-25 08:32N 44°44' E 037°47'0 0.0
2015-Jan-25 07:32N 44°44' E 037°47'0 0.0
2015-Jan-25 06:32N 44°44' E 037°47'0 0.0
2015-Jan-25 05:32N 44°44' E 037°47'0 0.0
2015-Jan-25 04:32N 44°44' E 037°47'0 0.0
2015-Jan-25 03:32N 44°44' E 037°47'0 0.0
2015-Jan-25 02:32N 44°44' E 037°47'0 0.0
2015-Jan-25 01:32N 44°44' E 037°47'0 0.0
2015-Jan-25 00:32N 44°44' E 037°47'0 0.0
2015-Jan-24 23:29N 44°44' E 037°47'0 0.0
2015-Jan-24 22:32N 44°44' E 037°47'0 0.0
2015-Jan-24 21:32N 44°44' E 037°47'0 0.0
2015-Jan-24 20:32N 44°44' E 037°47'0 0.0
2015-Jan-24 19:32N 44°44' E 037°47'0 0.0
2015-Jan-24 18:32N 44°44' E 037°47'0 0.0
2015-Jan-24 17:32N 44°44' E 037°47'0 0.0
2015-Jan-24 16:32N 44°44' E 037°47'0 0.0
2015-Jan-24 15:32N 44°44' E 037°47'0 0.0
2015-Jan-24 14:32N 44°44' E 037°47'0 0.0
2015-Jan-24 13:32N 44°44' E 037°47'0 0.0
2015-Jan-24 12:32N 44°44' E 037°47'0 0.0
2015-Jan-24 11:32N 44°44' E 037°47'0 0.0
2015-Jan-24 10:32N 44°44' E 037°47'0 0.0
2015-Jan-24 09:32N 44°44' E 037°47'0 0.0
2015-Jan-24 08:32N 44°44' E 037°47'0 0.0
2015-Jan-24 07:32N 44°44' E 037°47'0 0.0
2015-Jan-24 06:32N 44°44' E 037°47'0 0.0
2015-Jan-24 05:32N 44°44' E 037°47'0 0.0
2015-Jan-24 04:32N 44°44' E 037°47'0 0.0
2015-Jan-24 03:32N 44°44' E 037°47'0 0.0
2015-Jan-24 02:32N 44°44' E 037°47'0 0.0
2015-Jan-24 01:32N 44°44' E 037°47'0 0.0
2015-Jan-24 00:32N 44°44' E 037°47'0 0.0
2015-Jan-23 23:32N 44°44' E 037°47'0 0.0
2015-Jan-23 22:32N 44°44' E 037°47'0 0.0
2015-Jan-23 21:32N 44°44' E 037°47'0 0.0
2015-Jan-23 20:32N 44°44' E 037°47'0 0.0
2015-Jan-23 19:32N 44°44' E 037°47'0 0.0
2015-Jan-23 18:32N 44°44' E 037°47'0 0.0
2015-Jan-23 17:32N 44°44' E 037°47'0 0.0
2015-Jan-23 16:32N 44°44' E 037°47'0 0.0
2015-Jan-23 15:32N 44°44' E 037°47'0 0.0
2015-Jan-23 14:32N 44°44' E 037°47'0 0.0
2015-Jan-23 13:32N 44°44' E 037°47'0 0.0
2015-Jan-23 12:32N 44°44' E 037°47'0 0.0
2015-Jan-23 11:32N 44°44' E 037°47'0 0.0
2015-Jan-23 10:32N 44°44' E 037°47'0 0.0
2015-Jan-23 09:32N 44°44' E 037°47'0 0.0
2015-Jan-23 08:32N 44°44' E 037°47'0 0.0
2015-Jan-23 07:32N 44°44' E 037°47'0 0.0
2015-Jan-23 06:32N 44°44' E 037°47'0 0.0
2015-Jan-23 05:32N 44°44' E 037°47'0 0.0
2015-Jan-23 04:32N 44°44' E 037°47'0 0.0
2015-Jan-23 03:33N 44°44' E 037°47'0 0.0
2015-Jan-23 02:32N 44°44' E 037°47'0 0.0
2015-Jan-23 01:27N 44°44' E 037°47'0 0.0
2015-Jan-23 00:32N 44°44' E 037°47'0 0.0
2015-Jan-22 23:32N 44°44' E 037°47'0 0.0
2015-Jan-22 22:29N 44°44' E 037°47'0 0.0
2015-Jan-22 21:32N 44°44' E 037°47'0 0.0
2015-Jan-22 20:32N 44°44' E 037°47'0 0.0
2015-Jan-22 19:32N 44°44' E 037°47'0 0.0
2015-Jan-22 18:32N 44°44' E 037°47'0 0.0
2015-Jan-22 17:32N 44°44' E 037°47'0 0.0
2015-Jan-22 16:32N 44°44' E 037°47'0 0.0
2015-Jan-22 15:32N 44°44' E 037°47'0 0.0
2015-Jan-22 14:32N 44°44' E 037°47'0 0.0
2015-Jan-22 13:32N 44°44' E 037°47'0 0.0
2015-Jan-22 12:32N 44°44' E 037°47'0 0.0
2015-Jan-22 11:32N 44°44' E 037°47'0 0.0
2015-Jan-22 10:32N 44°44' E 037°47'0 0.0
2015-Jan-22 09:32N 44°44' E 037°47'0 0.0
2015-Jan-22 08:32N 44°44' E 037°47'0 0.0
2015-Jan-22 07:32N 44°44' E 037°47'0 0.0
2015-Jan-22 06:32N 44°44' E 037°47'0 0.0
2015-Jan-22 05:32N 44°44' E 037°47'0 0.0
2015-Jan-22 04:32N 44°44' E 037°47'0 0.0
2015-Jan-22 03:32N 44°44' E 037°47'0 0.0
2015-Jan-22 02:32N 44°44' E 037°47'0 0.0
2015-Jan-22 01:32N 44°44' E 037°47'0 0.0
2015-Jan-22 00:32N 44°44' E 037°47'0 0.0
2015-Jan-21 23:32N 44°44' E 037°47'0 0.0
2015-Jan-21 22:50N 44°44' E 037°47'0 0.1
2015-Jan-21 22:44N 44°44' E 037°47'0 0.0
2015-Jan-21 22:32N 44°44' E 037°47'0 0.0
2015-Jan-21 21:32N 44°44' E 037°47'0 0.0
2015-Jan-21 20:32N 44°44' E 037°47'0 0.0
2015-Jan-21 19:32N 44°44' E 037°47'0 0.0
2015-Jan-21 18:32N 44°44' E 037°47'0 0.0
2015-Jan-21 17:32N 44°44' E 037°47'0 0.0
2015-Jan-21 16:32N 44°44' E 037°47'0 0.0
2015-Jan-21 15:32N 44°44' E 037°47'0 0.0
2015-Jan-21 14:29N 44°44' E 037°47'0 0.0
2015-Jan-21 13:32N 44°44' E 037°47'0 0.0
2015-Jan-21 12:32N 44°44' E 037°47'0 0.0
2015-Jan-21 11:32N 44°44' E 037°47'0 0.0
2015-Jan-21 10:32N 44°44' E 037°47'1 0.8
2015-Jan-21 09:33N 44°43' E 037°48'5 5.4
2015-Jan-21 08:33N 44°38' E 037°51'1 1.1
2015-Jan-21 07:33N 44°37' E 037°52'7 7.5
2015-Jan-21 06:33N 44°30' E 037°51'7 6.5
2015-Jan-21 05:31N 44°24' E 037°47'1 0.8
2015-Jan-21 04:22N 44°23' E 037°46'1 0.8
2015-Jan-21 03:22N 44°22' E 037°45'1 0.8
2015-Jan-21 02:31N 44°21' E 037°45'1 0.7
2015-Jan-21 01:19N 44°21' E 037°45'1 0.7
2015-Jan-21 00:31N 44°20' E 037°45'1 0.7
2015-Jan-20 23:28N 44°19' E 037°44'1 0.7
2015-Jan-20 22:31N 44°19' E 037°44'9 1.1
2015-Jan-20 14:19N 44°10' E 037°42'810.2
2015-Jan-20 13:33N 44°14' E 037°33'1010.3
2015-Jan-20 12:33N 44°20' E 037°21'1 0.8
2015-Jan-20 11:33N 44°19' E 037°22'2 2.1
2015-Jan-20 10:33N 44°18' E 037°24'2 2.2
2015-Jan-20 09:33N 44°16' E 037°26'2 2.3
2015-Jan-20 08:33N 44°15' E 037°29'2 2.2
2015-Jan-20 07:32N 44°14' E 037°32'6 6.3
2015-Jan-20 06:33N 44°19' E 037°36'1010.3
2015-Jan-20 05:33N 44°29' E 037°42'2 1.7
2015-Jan-20 04:31N 44°28' E 037°40'1 1.4
2015-Jan-20 03:28N 44°27' E 037°39'2 1.3
2015-Jan-20 02:19N 44°25' E 037°38'1 1.3
2015-Jan-20 01:19N 44°24' E 037°37'1 1.2
2015-Jan-20 00:28N 44°23' E 037°36'1 1.2
2015-Jan-19 23:28N 44°22' E 037°36'1 1.2
2015-Jan-19 22:28N 44°21' E 037°35'1 1.2
2015-Jan-19 21:19N 44°20' E 037°35'3 1.2
2015-Jan-19 19:04N 44°17' E 037°35'2 1.0
2015-Jan-19 16:33N 44°16' E 037°38'1110.9
2015-Jan-19 15:32N 44°26' E 037°44'1 1.1
2015-Jan-19 14:31N 44°27' E 037°43'  
Track history (hours):
 
Tides and Currents Weather Stations Pressure Air Temp Water Temp Dewpoint Dewpoint Depression Visibility Wind Speed Wind Dir Waves Ship Positions

Port Star

Last reported at 2015-Jan-29 14:16 UTC. Time now 2015-Feb-01 07:09 UTC.
Position N 39°46' E 025°45'.

Length 175.5 m; beam 29.4 m.

Type: Ship. MMSI: 356105000.

Date/timePositionNaut miles runAvg speedWind from/ knotsBaromVisibWave heightAir tempDewpointWater temp
2015-Jan-29 14:16N 39°46' E 025°45'5911.9
2015-Jan-29 09:16N 40°25' E 026°43'5 7.1
2015-Jan-29 08:31N 40°26' E 026°50'92 6.5
2015-Jan-28 18:24N 40°54' E 028°46'1011.1
2015-Jan-28 17:31N 40°58' E 028°58'1110.3
2015-Jan-28 16:24N 41°08' E 029°04'11 8.6
2015-Jan-28 15:09N 41°19' E 029°09'5 7.2
2015-Jan-28 14:29N 41°23' E 029°09'10 4.3
2015-Jan-28 12:06N 41°31' E 029°18'610.1
2015-Jan-28 11:33N 41°31' E 029°26'1010.1
2015-Jan-28 10:33N 41°32' E 029°39'24412.0
2015-Jan-27 14:17N 43°23' E 034°34'1312.7
2015-Jan-27 13:16N 43°29' E 034°49'1012.5
2015-Jan-27 12:30N 43°33' E 035°01'1312.6
2015-Jan-27 11:26N 43°39' E 035°18'1112.8
2015-Jan-27 10:33N 43°45' E 035°32'1412.5
2015-Jan-27 09:25N 43°51' E 035°50'1312.4
2015-Jan-27 08:20N 43°57' E 036°06'6112.3
2015-Jan-27 03:24N 44°24' E 037°22'1112.8
2015-Jan-27 02:33N 44°30' E 037°35'1212.3
2015-Jan-27 01:33N 44°37' E 037°48'6 6.2
2015-Jan-27 00:33N 44°43' E 037°48'1 0.5
2015-Jan-26 23:32N 44°44' E 037°47'0 0.0
2015-Jan-26 22:32N 44°44' E 037°47'0 0.0
2015-Jan-26 21:32N 44°44' E 037°47'0 0.0
2015-Jan-26 20:32N 44°44' E 037°47'0 0.0
2015-Jan-26 19:32N 44°44' E 037°47'0 0.0
2015-Jan-26 18:32N 44°44' E 037°47'0 0.0
2015-Jan-26 17:29N 44°44' E 037°47'0 0.0
2015-Jan-26 16:32N 44°44' E 037°47'0 0.0
2015-Jan-26 15:32N 44°44' E 037°47'0 0.0
2015-Jan-26 14:32N 44°44' E 037°47'0 0.0
2015-Jan-26 13:32N 44°44' E 037°47'0 0.0
2015-Jan-26 12:32N 44°44' E 037°47'0 0.0
2015-Jan-26 11:32N 44°44' E 037°47'0 0.0
2015-Jan-26 10:32N 44°44' E 037°47'0 0.0
2015-Jan-26 09:32N 44°44' E 037°47'0 0.0
2015-Jan-26 08:32N 44°44' E 037°47'0 0.0
2015-Jan-26 07:32N 44°44' E 037°47'0 0.0
2015-Jan-26 06:32N 44°44' E 037°47'0 0.0
2015-Jan-26 05:32N 44°44' E 037°47'0 0.0
2015-Jan-26 04:32N 44°44' E 037°47'0 0.0
2015-Jan-26 03:32N 44°44' E 037°47'0 0.0
2015-Jan-26 02:32N 44°44' E 037°47'0 0.0
2015-Jan-26 01:32N 44°44' E 037°47'0 0.0
2015-Jan-26 00:32N 44°44' E 037°47'0 0.0
2015-Jan-25 23:32N 44°44' E 037°47'0 0.0
2015-Jan-25 22:32N 44°44' E 037°47'0 0.0
2015-Jan-25 21:32N 44°44' E 037°47'0 0.0
2015-Jan-25 20:32N 44°44' E 037°47'0 0.0
2015-Jan-25 19:29N 44°44' E 037°47'0 0.0
2015-Jan-25 18:32N 44°44' E 037°47'0 0.0
2015-Jan-25 17:32N 44°44' E 037°47'0 0.0
2015-Jan-25 16:32N 44°44' E 037°47'0 0.0
2015-Jan-25 15:32N 44°44' E 037°47'0 0.0
2015-Jan-25 14:32N 44°44' E 037°47'0 0.0
2015-Jan-25 13:32N 44°44' E 037°47'0 0.0
2015-Jan-25 12:32N 44°44' E 037°47'0 0.0
2015-Jan-25 11:32N 44°44' E 037°47'0 0.0
2015-Jan-25 10:32N 44°44' E 037°47'0 0.0
2015-Jan-25 09:32N 44°44' E 037°47'0 0.0
2015-Jan-25 08:32N 44°44' E 037°47'0 0.0
2015-Jan-25 07:32N 44°44' E 037°47'0 0.0
2015-Jan-25 06:32N 44°44' E 037°47'0 0.0
2015-Jan-25 05:32N 44°44' E 037°47'0 0.0
2015-Jan-25 04:32N 44°44' E 037°47'0 0.0
2015-Jan-25 03:32N 44°44' E 037°47'0 0.0
2015-Jan-25 02:32N 44°44' E 037°47'0 0.0
2015-Jan-25 01:32N 44°44' E 037°47'0 0.0
2015-Jan-25 00:32N 44°44' E 037°47'0 0.0
2015-Jan-24 23:29N 44°44' E 037°47'0 0.0
2015-Jan-24 22:32N 44°44' E 037°47'0 0.0
2015-Jan-24 21:32N 44°44' E 037°47'0 0.0
2015-Jan-24 20:32N 44°44' E 037°47'0 0.0
2015-Jan-24 19:32N 44°44' E 037°47'0 0.0
2015-Jan-24 18:32N 44°44' E 037°47'0 0.0
2015-Jan-24 17:32N 44°44' E 037°47'0 0.0
2015-Jan-24 16:32N 44°44' E 037°47'0 0.0
2015-Jan-24 15:32N 44°44' E 037°47'0 0.0
2015-Jan-24 14:32N 44°44' E 037°47'0 0.0
2015-Jan-24 13:32N 44°44' E 037°47'0 0.0
2015-Jan-24 12:32N 44°44' E 037°47'0 0.0
2015-Jan-24 11:32N 44°44' E 037°47'0 0.0
2015-Jan-24 10:32N 44°44' E 037°47'0 0.0
2015-Jan-24 09:32N 44°44' E 037°47'0 0.0
2015-Jan-24 08:32N 44°44' E 037°47'0 0.0
2015-Jan-24 07:32N 44°44' E 037°47'0 0.0
2015-Jan-24 06:32N 44°44' E 037°47'0 0.0
2015-Jan-24 05:32N 44°44' E 037°47'0 0.0
2015-Jan-24 04:32N 44°44' E 037°47'0 0.0
2015-Jan-24 03:32N 44°44' E 037°47'0 0.0
2015-Jan-24 02:32N 44°44' E 037°47'0 0.0
2015-Jan-24 01:32N 44°44' E 037°47'0 0.0
2015-Jan-24 00:32N 44°44' E 037°47'0 0.0
2015-Jan-23 23:32N 44°44' E 037°47'0 0.0
2015-Jan-23 22:32N 44°44' E 037°47'0 0.0
2015-Jan-23 21:32N 44°44' E 037°47'0 0.0
2015-Jan-23 20:32N 44°44' E 037°47'0 0.0
2015-Jan-23 19:32N 44°44' E 037°47'0 0.0
2015-Jan-23 18:32N 44°44' E 037°47'0 0.0
2015-Jan-23 17:32N 44°44' E 037°47'0 0.0
2015-Jan-23 16:32N 44°44' E 037°47'0 0.0
2015-Jan-23 15:32N 44°44' E 037°47'0 0.0
2015-Jan-23 14:32N 44°44' E 037°47'0 0.0
2015-Jan-23 13:32N 44°44' E 037°47'0 0.0
2015-Jan-23 12:32N 44°44' E 037°47'0 0.0
2015-Jan-23 11:32N 44°44' E 037°47'0 0.0
2015-Jan-23 10:32N 44°44' E 037°47'0 0.0
2015-Jan-23 09:32N 44°44' E 037°47'0 0.0
2015-Jan-23 08:32N 44°44' E 037°47'0 0.0
2015-Jan-23 07:32N 44°44' E 037°47'0 0.0
2015-Jan-23 06:32N 44°44' E 037°47'0 0.0
2015-Jan-23 05:32N 44°44' E 037°47'0 0.0
2015-Jan-23 04:32N 44°44' E 037°47'0 0.0
2015-Jan-23 03:33N 44°44' E 037°47'0 0.0
2015-Jan-23 02:32N 44°44' E 037°47'0 0.0
2015-Jan-23 01:27N 44°44' E 037°47'0 0.0
2015-Jan-23 00:32N 44°44' E 037°47'0 0.0
2015-Jan-22 23:32N 44°44' E 037°47'0 0.0
2015-Jan-22 22:29N 44°44' E 037°47'0 0.0
2015-Jan-22 21:32N 44°44' E 037°47'0 0.0
2015-Jan-22 20:32N 44°44' E 037°47'0 0.0
2015-Jan-22 19:32N 44°44' E 037°47'0 0.0
2015-Jan-22 18:32N 44°44' E 037°47'0 0.0
2015-Jan-22 17:32N 44°44' E 037°47'0 0.0
2015-Jan-22 16:32N 44°44' E 037°47'0 0.0
2015-Jan-22 15:32N 44°44' E 037°47'0 0.0
2015-Jan-22 14:32N 44°44' E 037°47'0 0.0
2015-Jan-22 13:32N 44°44' E 037°47'0 0.0
2015-Jan-22 12:32N 44°44' E 037°47'0 0.0
2015-Jan-22 11:32N 44°44' E 037°47'0 0.0
2015-Jan-22 10:32N 44°44' E 037°47'0 0.0
2015-Jan-22 09:32N 44°44' E 037°47'0 0.0
2015-Jan-22 08:32N 44°44' E 037°47'0 0.0
2015-Jan-22 07:32N 44°44' E 037°47'0 0.0
2015-Jan-22 06:32N 44°44' E 037°47'0 0.0
2015-Jan-22 05:32N 44°44' E 037°47'0 0.0
2015-Jan-22 04:32N 44°44' E 037°47'0 0.0
2015-Jan-22 03:32N 44°44' E 037°47'0 0.0
2015-Jan-22 02:32N 44°44' E 037°47'0 0.0
2015-Jan-22 01:32N 44°44' E 037°47'0 0.0
2015-Jan-22 00:32N 44°44' E 037°47'0 0.0
2015-Jan-21 23:32N 44°44' E 037°47'0 0.0
2015-Jan-21 22:50N 44°44' E 037°47'0 0.1
2015-Jan-21 22:44N 44°44' E 037°47'0 0.0
2015-Jan-21 22:32N 44°44' E 037°47'0 0.0
2015-Jan-21 21:32N 44°44' E 037°47'0 0.0
2015-Jan-21 20:32N 44°44' E 037°47'0 0.0
2015-Jan-21 19:32N 44°44' E 037°47'0 0.0
2015-Jan-21 18:32N 44°44' E 037°47'0 0.0
2015-Jan-21 17:32N 44°44' E 037°47'0 0.0
2015-Jan-21 16:32N 44°44' E 037°47'0 0.0
2015-Jan-21 15:32N 44°44' E 037°47'0 0.0
2015-Jan-21 14:29N 44°44' E 037°47'0 0.0
2015-Jan-21 13:32N 44°44' E 037°47'0 0.0
2015-Jan-21 12:32N 44°44' E 037°47'0 0.0
2015-Jan-21 11:32N 44°44' E 037°47'0 0.0
2015-Jan-21 10:32N 44°44' E 037°47'1 0.8
2015-Jan-21 09:33N 44°43' E 037°48'5 5.4
2015-Jan-21 08:33N 44°38' E 037°51'1 1.1
2015-Jan-21 07:33N 44°37' E 037°52'7 7.5
2015-Jan-21 06:33N 44°30' E 037°51'7 6.5
2015-Jan-21 05:31N 44°24' E 037°47'1 0.8
2015-Jan-21 04:22N 44°23' E 037°46'1 0.8
2015-Jan-21 03:22N 44°22' E 037°45'1 0.8
2015-Jan-21 02:31N 44°21' E 037°45'1 0.7
2015-Jan-21 01:19N 44°21' E 037°45'1 0.7
2015-Jan-21 00:31N 44°20' E 037°45'1 0.7
2015-Jan-20 23:28N 44°19' E 037°44'1 0.7
2015-Jan-20 22:31N 44°19' E 037°44'9 1.1
2015-Jan-20 14:19N 44°10' E 037°42'810.2
2015-Jan-20 13:33N 44°14' E 037°33'1010.3
2015-Jan-20 12:33N 44°20' E 037°21'1 0.8
2015-Jan-20 11:33N 44°19' E 037°22'2 2.1
2015-Jan-20 10:33N 44°18' E 037°24'2 2.2
2015-Jan-20 09:33N 44°16' E 037°26'2 2.3
2015-Jan-20 08:33N 44°15' E 037°29'2 2.2
2015-Jan-20 07:32N 44°14' E 037°32'6 6.3
2015-Jan-20 06:33N 44°19' E 037°36'1010.3
2015-Jan-20 05:33N 44°29' E 037°42'2 1.7
2015-Jan-20 04:31N 44°28' E 037°40'1 1.4
2015-Jan-20 03:28N 44°27' E 037°39'2 1.3
2015-Jan-20 02:19N 44°25' E 037°38'1 1.3
2015-Jan-20 01:19N 44°24' E 037°37'1 1.2
2015-Jan-20 00:28N 44°23' E 037°36'1 1.2
2015-Jan-19 23:28N 44°22' E 037°36'1 1.2
2015-Jan-19 22:28N 44°21' E 037°35'1 1.2
2015-Jan-19 21:19N 44°20' E 037°35'3 1.2
2015-Jan-19 19:04N 44°17' E 037°35'2 1.0
2015-Jan-19 16:33N 44°16' E 037°38'1110.9
2015-Jan-19 15:32N 44°26' E 037°44'1 1.1
2015-Jan-19 14:31N 44°27' E 037°43'  

Dump ship's entire track history